Buoy 13526

sailwx.info

Track history (hours):
 
Tides and Currents Weather Stations Pressure Air Temp Water Temp Dewpoint Dewpoint Depression Visibility Wind Speed Wind Dir Waves Ship Positions

Drifting buoy 13526

Last reported at 2015-Apr-19 14:59 UTC. Time now 2015-Apr-19 15:42 UTC.
Position N 26°42' W 046°21'.

Water temperature 22.9 ° C

Date/timePositionNaut miles runAvg speedWind from/ knotsBaromVisibWave heightAir tempDewpointWater temp
2015-Apr-19 14:59N 26°42' W 046°21'0 0.1 22.9
2015-Apr-19 10:15N 26°42' W 046°21'1 0.2 22.8
2015-Apr-19 06:55N 26°41' W 046°21'1 0.2 22.8
2015-Apr-19 04:03N 26°41' W 046°21'0 0.0 22.9
2015-Apr-19 03:55N 26°41' W 046°21'0 0.0 22.9
2015-Apr-19 01:46N 26°41' W 046°21'1 1.2 22.9
2015-Apr-19 00:54N 26°41' W 046°22'0 0.0 22.9
2015-Apr-19 00:10N 26°41' W 046°22'2 0.6 22.9
2015-Apr-18 21:03N 26°40' W 046°20'0 0.3 23.0
2015-Apr-18 20:09N 26°40' W 046°20'139.3 23.0
2015-Apr-18 20:08N 26°40' W 046°21'0 0.0 23.0
2015-Apr-18 18:55N 26°40' W 046°21'152.0 23.0
2015-Apr-18 18:54N 26°40' W 046°20'0 0.1 23.0
2015-Apr-18 12:51N 26°40' W 046°20'0 0.0 22.9
2015-Apr-18 12:00N 26°40' W 046°20'111.2 22.9
2015-Apr-18 11:55N 26°40' W 046°21'0 0.0 22.9
2015-Apr-18 10:33N 26°40' W 046°21'1 0.8 22.9
2015-Apr-18 09:17N 26°39' W 046°21'0 0.1 22.9
2015-Apr-18 07:07N 26°39' W 046°21'1 0.5 22.9
2015-Apr-18 04:17N 26°38' W 046°21'0 0.0 22.9
2015-Apr-18 04:14N 26°38' W 046°21'0 0.0 22.9
2015-Apr-18 04:06N 26°38' W 046°21'1 0.2
2015-Apr-17 22:52N 26°37' W 046°21'0 0.1 23.0
2015-Apr-17 21:03N 26°37' W 046°21'0 0.4 23.0
2015-Apr-17 20:05N 26°37' W 046°21'0 3.0 23.1
2015-Apr-17 19:55N 26°37' W 046°21'2 0.3 23.1
2015-Apr-17 14:04N 26°38' W 046°20'1 0.8 23.2
2015-Apr-17 13:14N 26°38' W 046°21'1 0.9 23.3
2015-Apr-17 12:26N 26°39' W 046°21'0 0.1 23.3
2015-Apr-17 08:59N 26°39' W 046°21'1 5.4 23.2
2015-Apr-17 08:53N 26°39' W 046°22'0 0.0 23.2
2015-Apr-17 08:04N 26°39' W 046°22'0 0.3 23.3
2015-Apr-17 07:18N 26°39' W 046°22'0 2.1 23.3
2015-Apr-17 07:13N 26°39' W 046°22'0 0.0 23.3
2015-Apr-17 06:06N 26°39' W 046°22'0 2.5 23.3
2015-Apr-17 06:03N 26°39' W 046°22'0 7.5 23.3
2015-Apr-17 06:00N 26°39' W 046°22'1 0.2 23.3
2015-Apr-17 01:41N 26°40' W 046°22'1 1.2 23.4
2015-Apr-17 00:55N 26°39' W 046°23'0 0.3 23.4
2015-Apr-16 23:55N 26°39' W 046°24'0 0.6 23.5
2015-Apr-16 23:09N 26°39' W 046°23'0 0.0 23.6
2015-Apr-16 18:53N 26°39' W 046°23'1 0.2 23.9
2015-Apr-16 16:00N 26°40' W 046°23'0 5.8 24.2
2015-Apr-16 15:55N 26°39' W 046°23'1 0.3 24.2
2015-Apr-16 11:53N 26°41' W 046°24'0 0.1
2015-Apr-16 10:08N 26°41' W 046°24'0 0.5 23.3
2015-Apr-16 09:09N 26°41' W 046°23'0 2.2 23.4
2015-Apr-16 09:04N 26°40' W 046°23'1 0.4 23.4
2015-Apr-16 06:14N 26°40' W 046°22'111.1 23.4
2015-Apr-16 06:09N 26°40' W 046°23'0 0.0 23.5
2015-Apr-16 04:40N 26°40' W 046°23'0 0.0 23.6
2015-Apr-16 01:58N 26°40' W 046°23'1 0.2 23.7
2015-Apr-15 22:40N 26°41' W 046°23'0 0.5 24.0
2015-Apr-15 21:51N 26°41' W 046°23'1 0.7 24.0
2015-Apr-15 20:56N 26°41' W 046°22'1 0.3
2015-Apr-15 19:05N 26°41' W 046°23'1 0.5 24.2
2015-Apr-15 17:52N 26°40' W 046°23'0 0.2 24.5
2015-Apr-15 16:09N 26°40' W 046°23'0 0.2 24.4
2015-Apr-15 14:45N 26°40' W 046°23'1 0.8 24.2
2015-Apr-15 13:56N 26°41' W 046°22'1 6.3 24.1
2015-Apr-15 13:51N 26°41' W 046°23'0 0.1 24.1
2015-Apr-15 12:10N 26°41' W 046°23'0 0.6 23.4
2015-Apr-15 11:19N 26°41' W 046°23'0 0.0 23.2
2015-Apr-15 09:21N 26°41' W 046°23'1 9.1 23.1
2015-Apr-15 09:15N 26°40' W 046°23'0 0.0 23.1
2015-Apr-15 08:52N 26°40' W 046°23'1 0.3 23.1
2015-Apr-15 07:08N 26°40' W 046°23'0 0.1 23.0
2015-Apr-15 04:50N 26°40' W 046°23'1 0.2 23.3
2015-Apr-14 23:55N 26°41' W 046°23'0 3.2 23.6
2015-Apr-14 23:52N 26°41' W 046°23'1 1.2 23.6
2015-Apr-14 22:55N 26°42' W 046°23'0 0.0 23.9
2015-Apr-14 20:54N 26°42' W 046°23'0 0.2 23.9
2015-Apr-14 19:16N 26°41' W 046°23'0 0.7 24.4
2015-Apr-14 18:55N 26°41' W 046°23'0 0.4 24.9
2015-Apr-14 18:03N 26°41' W 046°22'1 0.1 24.9
2015-Apr-14 09:15N 26°41' W 046°23'0 0.0 22.9
2015-Apr-14 07:52N 26°41' W 046°23'0 1.7 22.9
2015-Apr-14 07:40N 26°41' W 046°23'0 0.1 23.0
2015-Apr-14 04:55N 26°41' W 046°23'1 0.4 23.0
2015-Apr-14 01:52N 26°42' W 046°22'0 0.3 23.3
2015-Apr-14 00:55N 26°42' W 046°22'1 1.3 23.4
2015-Apr-14 00:11N 26°43' W 046°21'0 0.1
2015-Apr-13 21:07N 26°43' W 046°21'0 6.0 23.7
2015-Apr-13 21:02N 26°43' W 046°22'1 0.2 23.7
2015-Apr-13 12:53N 26°42' W 046°20'0 0.0 22.8
2015-Apr-13 12:04N 26°42' W 046°20'0 0.7 22.7
2015-Apr-13 11:59N 26°42' W 046°20'0 0.1 22.7
2015-Apr-13 08:03N 26°42' W 046°20'0 1.1 22.7
2015-Apr-13 08:00N 26°42' W 046°20'0 4.8 22.7
2015-Apr-13 07:56N 26°42' W 046°20'0 0.1 22.7
2015-Apr-13 05:09N 26°41' W 046°20'1 0.2 22.7
2015-Apr-12 22:54N 26°42' W 046°19'3 0.5 23.0
2015-Apr-12 17:55N 26°41' W 046°21'2 0.6 23.0
2015-Apr-12 15:01N 26°41' W 046°19'1 0.7 22.9
2015-Apr-12 14:08N 26°41' W 046°19'0 0.3 22.8
2015-Apr-12 12:18N 26°41' W 046°19'0 0.1 22.7
2015-Apr-12 10:22N 26°41' W 046°19'0 0.9 22.6
2015-Apr-12 10:09N 26°41' W 046°19'0 0.5 22.6
2015-Apr-12 09:55N 26°41' W 046°19'1 0.4 22.6
2015-Apr-12 08:14N 26°41' W 046°18'0 0.4 22.6
2015-Apr-12 07:04N 26°41' W 046°19'1 5.1 22.6
2015-Apr-12 06:55N 26°40' W 046°19'0 0.0 22.6
2015-Apr-12 06:50N 26°40' W 046°19'0 0.1 22.6
2015-Apr-12 05:21N 26°41' W 046°19'1 7.7 22.6
2015-Apr-12 05:13N 26°40' W 046°18'0 0.0 22.6
2015-Apr-12 03:40N 26°40' W 046°18'0 0.0 22.6
2015-Apr-12 01:45N 26°40' W 046°18'0 0.6 22.7
2015-Apr-12 00:56N 26°40' W 046°18'1 0.8 22.7
2015-Apr-12 00:05N 26°39' W 046°18'0 0.6 22.7
2015-Apr-11 23:18N 26°40' W 046°19'0 3.3 22.7
2015-Apr-11 23:10N 26°40' W 046°19'0 0.0
2015-Apr-11 21:50N 26°40' W 046°19'0 0.9 22.8
2015-Apr-11 21:29N 26°40' W 046°19'0 0.2 22.9
2015-Apr-11 19:51N 26°40' W 046°19'0 0.1 22.9
2015-Apr-11 18:35N 26°40' W 046°19'0 4.0 23.0
2015-Apr-11 18:31N 26°40' W 046°19'0 1.2 23.0
2015-Apr-11 18:08N 26°40' W 046°19'0 0.4 23.0
2015-Apr-11 16:56N 26°39' W 046°19'1 0.5 22.9
2015-Apr-11 15:13N 26°39' W 046°18'0 0.1 22.8
2015-Apr-11 11:55N 26°39' W 046°18'0 0.0 22.6
2015-Apr-11 11:06N 26°39' W 046°18'0 0.1 22.6
2015-Apr-11 09:10N 26°39' W 046°18'2 0.5 22.6
2015-Apr-11 05:30N 26°37' W 046°19'0 0.0 22.6
2015-Apr-11 05:24N 26°37' W 046°19'0 0.0 22.6
2015-Apr-11 02:03N 26°37' W 046°19'0 2.5 22.7
2015-Apr-11 02:00N 26°37' W 046°19'0 0.0 22.7
2015-Apr-11 01:19N 26°37' W 046°19'0 0.4 22.7
2015-Apr-11 00:27N 26°38' W 046°19'1 0.4 22.7
2015-Apr-10 22:38N 26°38' W 046°19'0 0.1 22.9
2015-Apr-10 20:37N 26°38' W 046°19'1 3.6 23.0
2015-Apr-10 20:26N 26°39' W 046°19'1 4.1 23.0
2015-Apr-10 20:17N 26°39' W 046°19'0 0.0 23.0
2015-Apr-10 20:02N 26°39' W 046°19'0 0.0 23.0
2015-Apr-10 19:55N 26°39' W 046°19'0 0.4 23.0
2015-Apr-10 18:56N 26°39' W 046°20'1 1.1 23.0
2015-Apr-10 18:10N 26°38' W 046°21'0 0.0
2015-Apr-10 17:07N 26°38' W 046°21'1 0.3 23.0
2015-Apr-10 14:47N 26°38' W 046°20'0 0.0 22.8
2015-Apr-10 14:03N 26°38' W 046°20'0 0.2 22.7
2015-Apr-10 13:00N 26°38' W 046°20'0 0.4 22.7
2015-Apr-10 12:14N 26°38' W 046°20'0 0.0 22.6
2015-Apr-10 10:17N 26°38' W 046°20'0 0.2 22.6
2015-Apr-10 09:14N 26°38' W 046°20'0 0.5 22.6
2015-Apr-10 08:36N 26°38' W 046°20'0 7.2 22.6
2015-Apr-10 08:32N 26°38' W 046°20'0 0.6 22.6
2015-Apr-10 08:07N 26°38' W 046°20'0 1.3 22.6
2015-Apr-10 07:55N 26°38' W 046°20'0 0.4
2015-Apr-10 07:38N 26°38' W 046°20'0 1.9 22.6
2015-Apr-10 07:24N 26°38' W 046°20'1 0.9 22.6
2015-Apr-10 06:52N 26°38' W 046°20'0 0.0 22.6
2015-Apr-10 05:40N 26°38' W 046°20'0 0.2 22.6
2015-Apr-10 04:03N 26°38' W 046°20'1 5.2 22.6
2015-Apr-10 03:56N 26°37' W 046°20'0 0.1 22.6
2015-Apr-10 00:45N 26°37' W 046°20'0 0.3 22.7
2015-Apr-09 23:55N 26°37' W 046°20'014.0 22.7
2015-Apr-09 23:53N 26°37' W 046°21'0 9.6 22.7
2015-Apr-09 23:50N 26°37' W 046°20'0 0.4 22.7
2015-Apr-09 23:00N 26°38' W 046°21'0 0.0 22.7
2015-Apr-09 21:02N 26°38' W 046°21'0 0.7 22.7
2015-Apr-09 20:55N 26°38' W 046°21'0 2.1 22.7
2015-Apr-09 20:46N 26°38' W 046°21'0 0.3 22.7
2015-Apr-09 20:09N 26°38' W 046°21'   22.8
Track history (hours):
 
Tides and Currents Weather Stations Pressure Air Temp Water Temp Dewpoint Dewpoint Depression Visibility Wind Speed Wind Dir Waves Ship Positions

Drifting buoy 13526

Last reported at 2015-Apr-19 14:59 UTC. Time now 2015-Apr-19 15:42 UTC.
Position N 26°42' W 046°21'.

Water temperature 22.9 ° C

Date/timePositionNaut miles runAvg speedWind from/ knotsBaromVisibWave heightAir tempDewpointWater temp
2015-Apr-19 14:59N 26°42' W 046°21'0 0.1 22.9
2015-Apr-19 10:15N 26°42' W 046°21'1 0.2 22.8
2015-Apr-19 06:55N 26°41' W 046°21'1 0.2 22.8
2015-Apr-19 04:03N 26°41' W 046°21'0 0.0 22.9
2015-Apr-19 03:55N 26°41' W 046°21'0 0.0 22.9
2015-Apr-19 01:46N 26°41' W 046°21'1 1.2 22.9
2015-Apr-19 00:54N 26°41' W 046°22'0 0.0 22.9
2015-Apr-19 00:10N 26°41' W 046°22'2 0.6 22.9
2015-Apr-18 21:03N 26°40' W 046°20'0 0.3 23.0
2015-Apr-18 20:09N 26°40' W 046°20'139.3 23.0
2015-Apr-18 20:08N 26°40' W 046°21'0 0.0 23.0
2015-Apr-18 18:55N 26°40' W 046°21'152.0 23.0
2015-Apr-18 18:54N 26°40' W 046°20'0 0.1 23.0
2015-Apr-18 12:51N 26°40' W 046°20'0 0.0 22.9
2015-Apr-18 12:00N 26°40' W 046°20'111.2 22.9
2015-Apr-18 11:55N 26°40' W 046°21'0 0.0 22.9
2015-Apr-18 10:33N 26°40' W 046°21'1 0.8 22.9
2015-Apr-18 09:17N 26°39' W 046°21'0 0.1 22.9
2015-Apr-18 07:07N 26°39' W 046°21'1 0.5 22.9
2015-Apr-18 04:17N 26°38' W 046°21'0 0.0 22.9
2015-Apr-18 04:14N 26°38' W 046°21'0 0.0 22.9
2015-Apr-18 04:06N 26°38' W 046°21'1 0.2
2015-Apr-17 22:52N 26°37' W 046°21'0 0.1 23.0
2015-Apr-17 21:03N 26°37' W 046°21'0 0.4 23.0
2015-Apr-17 20:05N 26°37' W 046°21'0 3.0 23.1
2015-Apr-17 19:55N 26°37' W 046°21'2 0.3 23.1
2015-Apr-17 14:04N 26°38' W 046°20'1 0.8 23.2
2015-Apr-17 13:14N 26°38' W 046°21'1 0.9 23.3
2015-Apr-17 12:26N 26°39' W 046°21'0 0.1 23.3
2015-Apr-17 08:59N 26°39' W 046°21'1 5.4 23.2
2015-Apr-17 08:53N 26°39' W 046°22'0 0.0 23.2
2015-Apr-17 08:04N 26°39' W 046°22'0 0.3 23.3
2015-Apr-17 07:18N 26°39' W 046°22'0 2.1 23.3
2015-Apr-17 07:13N 26°39' W 046°22'0 0.0 23.3
2015-Apr-17 06:06N 26°39' W 046°22'0 2.5 23.3
2015-Apr-17 06:03N 26°39' W 046°22'0 7.5 23.3
2015-Apr-17 06:00N 26°39' W 046°22'1 0.2 23.3
2015-Apr-17 01:41N 26°40' W 046°22'1 1.2 23.4
2015-Apr-17 00:55N 26°39' W 046°23'0 0.3 23.4
2015-Apr-16 23:55N 26°39' W 046°24'0 0.6 23.5
2015-Apr-16 23:09N 26°39' W 046°23'0 0.0 23.6
2015-Apr-16 18:53N 26°39' W 046°23'1 0.2 23.9
2015-Apr-16 16:00N 26°40' W 046°23'0 5.8 24.2
2015-Apr-16 15:55N 26°39' W 046°23'1 0.3 24.2
2015-Apr-16 11:53N 26°41' W 046°24'0 0.1
2015-Apr-16 10:08N 26°41' W 046°24'0 0.5 23.3
2015-Apr-16 09:09N 26°41' W 046°23'0 2.2 23.4
2015-Apr-16 09:04N 26°40' W 046°23'1 0.4 23.4
2015-Apr-16 06:14N 26°40' W 046°22'111.1 23.4
2015-Apr-16 06:09N 26°40' W 046°23'0 0.0 23.5
2015-Apr-16 04:40N 26°40' W 046°23'0 0.0 23.6
2015-Apr-16 01:58N 26°40' W 046°23'1 0.2 23.7
2015-Apr-15 22:40N 26°41' W 046°23'0 0.5 24.0
2015-Apr-15 21:51N 26°41' W 046°23'1 0.7 24.0
2015-Apr-15 20:56N 26°41' W 046°22'1 0.3
2015-Apr-15 19:05N 26°41' W 046°23'1 0.5 24.2
2015-Apr-15 17:52N 26°40' W 046°23'0 0.2 24.5
2015-Apr-15 16:09N 26°40' W 046°23'0 0.2 24.4
2015-Apr-15 14:45N 26°40' W 046°23'1 0.8 24.2
2015-Apr-15 13:56N 26°41' W 046°22'1 6.3 24.1
2015-Apr-15 13:51N 26°41' W 046°23'0 0.1 24.1
2015-Apr-15 12:10N 26°41' W 046°23'0 0.6 23.4
2015-Apr-15 11:19N 26°41' W 046°23'0 0.0 23.2
2015-Apr-15 09:21N 26°41' W 046°23'1 9.1 23.1
2015-Apr-15 09:15N 26°40' W 046°23'0 0.0 23.1
2015-Apr-15 08:52N 26°40' W 046°23'1 0.3 23.1
2015-Apr-15 07:08N 26°40' W 046°23'0 0.1 23.0
2015-Apr-15 04:50N 26°40' W 046°23'1 0.2 23.3
2015-Apr-14 23:55N 26°41' W 046°23'0 3.2 23.6
2015-Apr-14 23:52N 26°41' W 046°23'1 1.2 23.6
2015-Apr-14 22:55N 26°42' W 046°23'0 0.0 23.9
2015-Apr-14 20:54N 26°42' W 046°23'0 0.2 23.9
2015-Apr-14 19:16N 26°41' W 046°23'0 0.7 24.4
2015-Apr-14 18:55N 26°41' W 046°23'0 0.4 24.9
2015-Apr-14 18:03N 26°41' W 046°22'1 0.1 24.9
2015-Apr-14 09:15N 26°41' W 046°23'0 0.0 22.9
2015-Apr-14 07:52N 26°41' W 046°23'0 1.7 22.9
2015-Apr-14 07:40N 26°41' W 046°23'0 0.1 23.0
2015-Apr-14 04:55N 26°41' W 046°23'1 0.4 23.0
2015-Apr-14 01:52N 26°42' W 046°22'0 0.3 23.3
2015-Apr-14 00:55N 26°42' W 046°22'1 1.3 23.4
2015-Apr-14 00:11N 26°43' W 046°21'0 0.1
2015-Apr-13 21:07N 26°43' W 046°21'0 6.0 23.7
2015-Apr-13 21:02N 26°43' W 046°22'1 0.2 23.7
2015-Apr-13 12:53N 26°42' W 046°20'0 0.0 22.8
2015-Apr-13 12:04N 26°42' W 046°20'0 0.7 22.7
2015-Apr-13 11:59N 26°42' W 046°20'0 0.1 22.7
2015-Apr-13 08:03N 26°42' W 046°20'0 1.1 22.7
2015-Apr-13 08:00N 26°42' W 046°20'0 4.8 22.7
2015-Apr-13 07:56N 26°42' W 046°20'0 0.1 22.7
2015-Apr-13 05:09N 26°41' W 046°20'1 0.2 22.7
2015-Apr-12 22:54N 26°42' W 046°19'3 0.5 23.0
2015-Apr-12 17:55N 26°41' W 046°21'2 0.6 23.0
2015-Apr-12 15:01N 26°41' W 046°19'1 0.7 22.9
2015-Apr-12 14:08N 26°41' W 046°19'0 0.3 22.8
2015-Apr-12 12:18N 26°41' W 046°19'0 0.1 22.7
2015-Apr-12 10:22N 26°41' W 046°19'0 0.9 22.6
2015-Apr-12 10:09N 26°41' W 046°19'0 0.5 22.6
2015-Apr-12 09:55N 26°41' W 046°19'1 0.4 22.6
2015-Apr-12 08:14N 26°41' W 046°18'0 0.4 22.6
2015-Apr-12 07:04N 26°41' W 046°19'1 5.1 22.6
2015-Apr-12 06:55N 26°40' W 046°19'0 0.0 22.6
2015-Apr-12 06:50N 26°40' W 046°19'0 0.1 22.6
2015-Apr-12 05:21N 26°41' W 046°19'1 7.7 22.6
2015-Apr-12 05:13N 26°40' W 046°18'0 0.0 22.6
2015-Apr-12 03:40N 26°40' W 046°18'0 0.0 22.6
2015-Apr-12 01:45N 26°40' W 046°18'0 0.6 22.7
2015-Apr-12 00:56N 26°40' W 046°18'1 0.8 22.7
2015-Apr-12 00:05N 26°39' W 046°18'0 0.6 22.7
2015-Apr-11 23:18N 26°40' W 046°19'0 3.3 22.7
2015-Apr-11 23:10N 26°40' W 046°19'0 0.0
2015-Apr-11 21:50N 26°40' W 046°19'0 0.9 22.8
2015-Apr-11 21:29N 26°40' W 046°19'0 0.2 22.9
2015-Apr-11 19:51N 26°40' W 046°19'0 0.1 22.9
2015-Apr-11 18:35N 26°40' W 046°19'0 4.0 23.0
2015-Apr-11 18:31N 26°40' W 046°19'0 1.2 23.0
2015-Apr-11 18:08N 26°40' W 046°19'0 0.4 23.0
2015-Apr-11 16:56N 26°39' W 046°19'1 0.5 22.9
2015-Apr-11 15:13N 26°39' W 046°18'0 0.1 22.8
2015-Apr-11 11:55N 26°39' W 046°18'0 0.0 22.6
2015-Apr-11 11:06N 26°39' W 046°18'0 0.1 22.6
2015-Apr-11 09:10N 26°39' W 046°18'2 0.5 22.6
2015-Apr-11 05:30N 26°37' W 046°19'0 0.0 22.6
2015-Apr-11 05:24N 26°37' W 046°19'0 0.0 22.6
2015-Apr-11 02:03N 26°37' W 046°19'0 2.5 22.7
2015-Apr-11 02:00N 26°37' W 046°19'0 0.0 22.7
2015-Apr-11 01:19N 26°37' W 046°19'0 0.4 22.7
2015-Apr-11 00:27N 26°38' W 046°19'1 0.4 22.7
2015-Apr-10 22:38N 26°38' W 046°19'0 0.1 22.9
2015-Apr-10 20:37N 26°38' W 046°19'1 3.6 23.0
2015-Apr-10 20:26N 26°39' W 046°19'1 4.1 23.0
2015-Apr-10 20:17N 26°39' W 046°19'0 0.0 23.0
2015-Apr-10 20:02N 26°39' W 046°19'0 0.0 23.0
2015-Apr-10 19:55N 26°39' W 046°19'0 0.4 23.0
2015-Apr-10 18:56N 26°39' W 046°20'1 1.1 23.0
2015-Apr-10 18:10N 26°38' W 046°21'0 0.0
2015-Apr-10 17:07N 26°38' W 046°21'1 0.3 23.0
2015-Apr-10 14:47N 26°38' W 046°20'0 0.0 22.8
2015-Apr-10 14:03N 26°38' W 046°20'0 0.2 22.7
2015-Apr-10 13:00N 26°38' W 046°20'0 0.4 22.7
2015-Apr-10 12:14N 26°38' W 046°20'0 0.0 22.6
2015-Apr-10 10:17N 26°38' W 046°20'0 0.2 22.6
2015-Apr-10 09:14N 26°38' W 046°20'0 0.5 22.6
2015-Apr-10 08:36N 26°38' W 046°20'0 7.2 22.6
2015-Apr-10 08:32N 26°38' W 046°20'0 0.6 22.6
2015-Apr-10 08:07N 26°38' W 046°20'0 1.3 22.6
2015-Apr-10 07:55N 26°38' W 046°20'0 0.4
2015-Apr-10 07:38N 26°38' W 046°20'0 1.9 22.6
2015-Apr-10 07:24N 26°38' W 046°20'1 0.9 22.6
2015-Apr-10 06:52N 26°38' W 046°20'0 0.0 22.6
2015-Apr-10 05:40N 26°38' W 046°20'0 0.2 22.6
2015-Apr-10 04:03N 26°38' W 046°20'1 5.2 22.6
2015-Apr-10 03:56N 26°37' W 046°20'0 0.1 22.6
2015-Apr-10 00:45N 26°37' W 046°20'0 0.3 22.7
2015-Apr-09 23:55N 26°37' W 046°20'014.0 22.7
2015-Apr-09 23:53N 26°37' W 046°21'0 9.6 22.7
2015-Apr-09 23:50N 26°37' W 046°20'0 0.4 22.7
2015-Apr-09 23:00N 26°38' W 046°21'0 0.0 22.7
2015-Apr-09 21:02N 26°38' W 046°21'0 0.7 22.7
2015-Apr-09 20:55N 26°38' W 046°21'0 2.1 22.7
2015-Apr-09 20:46N 26°38' W 046°21'0 0.3 22.7
2015-Apr-09 20:09N 26°38' W 046°21'   22.8

Dump ship's entire track history